sensor_id;sensor_type;location;lat;lon;timestamp;P1;durP1;ratioP1;P2;durP2;ratioP2
26163;SDS011;13914;48.178;11.716;2023-03-09T00:02:11;3.72;;;0.93;;
26163;SDS011;13914;48.178;11.716;2023-03-09T00:04:38;1.55;;;1.05;;
26163;SDS011;13914;48.178;11.716;2023-03-09T00:07:04;1.58;;;0.73;;
26163;SDS011;13914;48.178;11.716;2023-03-09T00:09:30;2.17;;;1.00;;
26163;SDS011;13914;48.178;11.716;2023-03-09T00:11:56;2.53;;;1.00;;
26163;SDS011;13914;48.178;11.716;2023-03-09T00:14:22;3.75;;;0.95;;
26163;SDS011;13914;48.178;11.716;2023-03-09T00:16:49;1.70;;;1.02;;
26163;SDS011;13914;48.178;11.716;2023-03-09T00:19:15;3.47;;;0.90;;
26163;SDS011;13914;48.178;11.716;2023-03-09T00:21:45;2.78;;;1.00;;
26163;SDS011;13914;48.178;11.716;2023-03-09T00:24:20;1.58;;;0.63;;
26163;SDS011;13914;48.178;11.716;2023-03-09T00:26:55;4.95;;;0.90;;
26163;SDS011;13914;48.178;11.716;2023-03-09T00:29:24;3.58;;;0.80;;
26163;SDS011;13914;48.178;11.716;2023-03-09T00:31:52;2.92;;;1.13;;
26163;SDS011;13914;48.178;11.716;2023-03-09T00:34:18;2.70;;;0.77;;
26163;SDS011;13914;48.178;11.716;2023-03-09T00:36:45;1.77;;;0.90;;
26163;SDS011;13914;48.178;11.716;2023-03-09T00:39:12;1.70;;;0.77;;
26163;SDS011;13914;48.178;11.716;2023-03-09T00:41:39;2.08;;;0.73;;
26163;SDS011;13914;48.178;11.716;2023-03-09T00:44:06;3.63;;;1.00;;
26163;SDS011;13914;48.178;11.716;2023-03-09T00:46:32;3.40;;;0.65;;
26163;SDS011;13914;48.178;11.716;2023-03-09T00:48:59;3.33;;;1.13;;
26163;SDS011;13914;48.178;11.716;2023-03-09T00:51:31;3.50;;;0.73;;
26163;SDS011;13914;48.178;11.716;2023-03-09T00:53:59;2.00;;;0.80;;
26163;SDS011;13914;48.178;11.716;2023-03-09T00:56:25;2.08;;;0.77;;
26163;SDS011;13914;48.178;11.716;2023-03-09T00:58:55;0.40;;;0.40;;
26163;SDS011;13914;48.178;11.716;2023-03-09T01:01:22;3.25;;;0.70;;
26163;SDS011;13914;48.178;11.716;2023-03-09T01:03:48;2.00;;;0.60;;
26163;SDS011;13914;48.178;11.716;2023-03-09T01:06:15;2.20;;;0.30;;
26163;SDS011;13914;48.178;11.716;2023-03-09T01:08:41;3.55;;;0.50;;
26163;SDS011;13914;48.178;11.716;2023-03-09T01:11:08;1.88;;;0.73;;
26163;SDS011;13914;48.178;11.716;2023-03-09T01:13:36;2.10;;;0.30;;
26163;SDS011;13914;48.178;11.716;2023-03-09T01:16:02;2.03;;;0.40;;
26163;SDS011;13914;48.178;11.716;2023-03-09T01:18:29;1.05;;;0.40;;
26163;SDS011;13914;48.178;11.716;2023-03-09T01:20:55;0.40;;;0.20;;
26163;SDS011;13914;48.178;11.716;2023-03-09T01:23:23;1.02;;;0.28;;
26163;SDS011;13914;48.178;11.716;2023-03-09T01:25:49;2.03;;;0.57;;
26163;SDS011;13914;48.178;11.716;2023-03-09T01:28:17;2.20;;;0.30;;
26163;SDS011;13914;48.178;11.716;2023-03-09T01:30:43;2.47;;;0.30;;
26163;SDS011;13914;48.178;11.716;2023-03-09T01:33:10;1.00;;;0.22;;
26163;SDS011;13914;48.178;11.716;2023-03-09T01:35:37;1.08;;;0.28;;
26163;SDS011;13914;48.178;11.716;2023-03-09T01:38:04;2.55;;;0.50;;
26163;SDS011;13914;48.178;11.716;2023-03-09T01:42:57;1.25;;;0.40;;
26163;SDS011;13914;48.178;11.716;2023-03-09T01:47:58;1.88;;;0.30;;
26163;SDS011;13914;48.178;11.716;2023-03-09T01:50:26;0.10;;;0.10;;
26163;SDS011;13914;48.178;11.716;2023-03-09T01:53:00;0.98;;;0.20;;
26163;SDS011;13914;48.178;11.716;2023-03-09T01:55:42;0.85;;;0.20;;
26163;SDS011;13914;48.178;11.716;2023-03-09T01:58:22;0.85;;;0.10;;
26163;SDS011;13914;48.178;11.716;2023-03-09T02:00:52;1.17;;;0.20;;
26163;SDS011;13914;48.178;11.716;2023-03-09T02:03:39;0.90;;;0.25;;
26163;SDS011;13914;48.178;11.716;2023-03-09T02:06:13;2.05;;;0.20;;
26163;SDS011;13914;48.178;11.716;2023-03-09T02:08:45;0.75;;;0.20;;
26163;SDS011;13914;48.178;11.716;2023-03-09T02:11:25;1.38;;;0.20;;
26163;SDS011;13914;48.178;11.716;2023-03-09T02:13:51;0.63;;;0.10;;
26163;SDS011;13914;48.178;11.716;2023-03-09T02:16:18;0.20;;;0.10;;
26163;SDS011;13914;48.178;11.716;2023-03-09T02:26:56;0.22;;;0.10;;
26163;SDS011;13914;48.178;11.716;2023-03-09T02:29:26;0.10;;;0.10;;
26163;SDS011;13914;48.178;11.716;2023-03-09T02:31:52;0.20;;;0.10;;
26163;SDS011;13914;48.178;11.716;2023-03-09T02:34:18;1.15;;;0.20;;
26163;SDS011;13914;48.178;11.716;2023-03-09T02:36:44;0.20;;;0.10;;
26163;SDS011;13914;48.178;11.716;2023-03-09T02:42:23;1.20;;;0.32;;
26163;SDS011;13914;48.178;11.716;2023-03-09T02:44:52;0.10;;;0.10;;
26163;SDS011;13914;48.178;11.716;2023-03-09T02:47:20;1.10;;;0.10;;
26163;SDS011;13914;48.178;11.716;2023-03-09T02:49:48;3.88;;;0.30;;
26163;SDS011;13914;48.178;11.716;2023-03-09T02:52:13;3.05;;;0.15;;
26163;SDS011;13914;48.178;11.716;2023-03-09T02:54:39;4.70;;;0.30;;
26163;SDS011;13914;48.178;11.716;2023-03-09T02:57:05;0.52;;;0.15;;
26163;SDS011;13914;48.178;11.716;2023-03-09T02:59:32;2.33;;;0.30;;
26163;SDS011;13914;48.178;11.716;2023-03-09T03:01:58;1.80;;;0.38;;
26163;SDS011;13914;48.178;11.716;2023-03-09T03:04:24;1.30;;;0.20;;
26163;SDS011;13914;48.178;11.716;2023-03-09T03:06:50;1.38;;;0.28;;
26163;SDS011;13914;48.178;11.716;2023-03-09T03:09:15;1.27;;;0.10;;
26163;SDS011;13914;48.178;11.716;2023-03-09T03:11:41;3.07;;;0.40;;
26163;SDS011;13914;48.178;11.716;2023-03-09T03:14:07;1.20;;;0.22;;
26163;SDS011;13914;48.178;11.716;2023-03-09T03:16:33;4.30;;;0.38;;
26163;SDS011;13914;48.178;11.716;2023-03-09T03:21:25;2.45;;;0.25;;
26163;SDS011;13914;48.178;11.716;2023-03-09T03:23:51;0.63;;;0.17;;
26163;SDS011;13914;48.178;11.716;2023-03-09T03:26:17;1.13;;;0.30;;
26163;SDS011;13914;48.178;11.716;2023-03-09T03:28:43;1.08;;;0.30;;
26163;SDS011;13914;48.178;11.716;2023-03-09T03:31:09;4.28;;;0.40;;
26163;SDS011;13914;48.178;11.716;2023-03-09T03:33:36;0.85;;;0.20;;
26163;SDS011;13914;48.178;11.716;2023-03-09T03:36:02;1.67;;;0.20;;
26163;SDS011;13914;48.178;11.716;2023-03-09T03:38:29;2.25;;;0.25;;
26163;SDS011;13914;48.178;11.716;2023-03-09T03:40:54;0.47;;;0.17;;
26163;SDS011;13914;48.178;11.716;2023-03-09T03:43:20;1.60;;;0.30;;
26163;SDS011;13914;48.178;11.716;2023-03-09T03:45:46;1.42;;;0.22;;
26163;SDS011;13914;48.178;11.716;2023-03-09T03:48:12;1.25;;;0.32;;
26163;SDS011;13914;48.178;11.716;2023-03-09T03:50:38;0.95;;;0.30;;
26163;SDS011;13914;48.178;11.716;2023-03-09T03:53:03;1.08;;;0.35;;
26163;SDS011;13914;48.178;11.716;2023-03-09T03:55:30;1.80;;;0.38;;
26163;SDS011;13914;48.178;11.716;2023-03-09T03:57:56;1.27;;;0.50;;
26163;SDS011;13914;48.178;11.716;2023-03-09T04:00:21;2.05;;;0.30;;
26163;SDS011;13914;48.178;11.716;2023-03-09T04:02:49;4.88;;;0.30;;
26163;SDS011;13914;48.178;11.716;2023-03-09T04:05:15;2.70;;;0.47;;
26163;SDS011;13914;48.178;11.716;2023-03-09T04:07:41;2.83;;;0.40;;
26163;SDS011;13914;48.178;11.716;2023-03-09T04:10:07;0.98;;;0.40;;
26163;SDS011;13914;48.178;11.716;2023-03-09T04:12:34;0.68;;;0.30;;
26163;SDS011;13914;48.178;11.716;2023-03-09T04:15:00;4.28;;;0.38;;
26163;SDS011;13914;48.178;11.716;2023-03-09T04:17:26;3.08;;;0.50;;
26163;SDS011;13914;48.178;11.716;2023-03-09T04:19:51;1.00;;;0.30;;
26163;SDS011;13914;48.178;11.716;2023-03-09T04:22:17;1.08;;;0.40;;
26163;SDS011;13914;48.178;11.716;2023-03-09T04:24:47;1.48;;;0.35;;
26163;SDS011;13914;48.178;11.716;2023-03-09T04:27:14;1.67;;;0.20;;
26163;SDS011;13914;48.178;11.716;2023-03-09T04:29:40;0.40;;;0.20;;
26163;SDS011;13914;48.178;11.716;2023-03-09T04:32:08;2.97;;;0.50;;
26163;SDS011;13914;48.178;11.716;2023-03-09T04:34:34;1.45;;;0.45;;
26163;SDS011;13914;48.178;11.716;2023-03-09T04:36:59;1.73;;;0.60;;
26163;SDS011;13914;48.178;11.716;2023-03-09T04:39:25;2.03;;;0.70;;
26163;SDS011;13914;48.178;11.716;2023-03-09T04:41:51;4.47;;;0.33;;
26163;SDS011;13914;48.178;11.716;2023-03-09T04:44:16;1.98;;;0.47;;
26163;SDS011;13914;48.178;11.716;2023-03-09T04:46:42;3.70;;;0.22;;
26163;SDS011;13914;48.178;11.716;2023-03-09T04:49:08;2.55;;;0.40;;
26163;SDS011;13914;48.178;11.716;2023-03-09T04:51:34;2.08;;;0.40;;
26163;SDS011;13914;48.178;11.716;2023-03-09T04:53:59;1.93;;;0.40;;
26163;SDS011;13914;48.178;11.716;2023-03-09T04:56:25;1.50;;;0.43;;
26163;SDS011;13914;48.178;11.716;2023-03-09T04:58:51;2.35;;;0.20;;
26163;SDS011;13914;48.178;11.716;2023-03-09T05:01:17;1.27;;;0.70;;
26163;SDS011;13914;48.178;11.716;2023-03-09T05:03:42;2.57;;;0.40;;
26163;SDS011;13914;48.178;11.716;2023-03-09T05:06:08;1.77;;;0.40;;
26163;SDS011;13914;48.178;11.716;2023-03-09T05:08:34;0.67;;;0.20;;
26163;SDS011;13914;48.178;11.716;2023-03-09T05:11:00;3.42;;;0.28;;
26163;SDS011;13914;48.178;11.716;2023-03-09T05:13:26;1.75;;;0.40;;
26163;SDS011;13914;48.178;11.716;2023-03-09T05:15:52;0.55;;;0.20;;
26163;SDS011;13914;48.178;11.716;2023-03-09T05:18:17;2.10;;;0.30;;
26163;SDS011;13914;48.178;11.716;2023-03-09T05:20:43;0.88;;;0.20;;
26163;SDS011;13914;48.178;11.716;2023-03-09T05:23:09;0.63;;;0.10;;
26163;SDS011;13914;48.178;11.716;2023-03-09T05:25:35;0.47;;;0.10;;
26163;SDS011;13914;48.178;11.716;2023-03-09T05:28:01;1.25;;;0.20;;
26163;SDS011;13914;48.178;11.716;2023-03-09T05:30:27;1.45;;;0.40;;
26163;SDS011;13914;48.178;11.716;2023-03-09T05:32:54;0.45;;;0.20;;
26163;SDS011;13914;48.178;11.716;2023-03-09T05:35:19;1.02;;;0.20;;
26163;SDS011;13914;48.178;11.716;2023-03-09T05:37:45;2.03;;;0.35;;
26163;SDS011;13914;48.178;11.716;2023-03-09T05:40:14;1.75;;;0.30;;
26163;SDS011;13914;48.178;11.716;2023-03-09T05:42:43;0.38;;;0.20;;
26163;SDS011;13914;48.178;11.716;2023-03-09T05:45:09;1.98;;;0.17;;
26163;SDS011;13914;48.178;11.716;2023-03-09T05:47:35;2.80;;;0.30;;
26163;SDS011;13914;48.178;11.716;2023-03-09T05:50:04;1.35;;;0.40;;
26163;SDS011;13914;48.178;11.716;2023-03-09T05:52:30;0.35;;;0.10;;
26163;SDS011;13914;48.178;11.716;2023-03-09T05:54:55;0.65;;;0.30;;
26163;SDS011;13914;48.178;11.716;2023-03-09T05:57:21;1.15;;;0.30;;
26163;SDS011;13914;48.178;11.716;2023-03-09T05:59:47;1.58;;;0.20;;
26163;SDS011;13914;48.178;11.716;2023-03-09T06:02:13;2.10;;;0.20;;
26163;SDS011;13914;48.178;11.716;2023-03-09T06:04:39;1.42;;;0.20;;
26163;SDS011;13914;48.178;11.716;2023-03-09T06:07:05;3.00;;;0.30;;
26163;SDS011;13914;48.178;11.716;2023-03-09T06:09:30;1.13;;;0.10;;
26163;SDS011;13914;48.178;11.716;2023-03-09T06:11:56;0.10;;;0.10;;
26163;SDS011;13914;48.178;11.716;2023-03-09T06:14:22;0.55;;;0.30;;
26163;SDS011;13914;48.178;11.716;2023-03-09T06:16:48;1.83;;;0.38;;
26163;SDS011;13914;48.178;11.716;2023-03-09T06:19:13;0.50;;;0.20;;
26163;SDS011;13914;48.178;11.716;2023-03-09T06:21:39;0.50;;;0.20;;
26163;SDS011;13914;48.178;11.716;2023-03-09T06:24:06;0.47;;;0.20;;
26163;SDS011;13914;48.178;11.716;2023-03-09T06:26:32;0.45;;;0.15;;
26163;SDS011;13914;48.178;11.716;2023-03-09T06:28:57;0.65;;;0.20;;
26163;SDS011;13914;48.178;11.716;2023-03-09T06:31:23;0.73;;;0.30;;
26163;SDS011;13914;48.178;11.716;2023-03-09T06:33:49;1.30;;;0.30;;
26163;SDS011;13914;48.178;11.716;2023-03-09T06:36:15;1.65;;;0.25;;
26163;SDS011;13914;48.178;11.716;2023-03-09T06:38:43;0.65;;;0.32;;
26163;SDS011;13914;48.178;11.716;2023-03-09T06:41:09;4.05;;;0.28;;
26163;SDS011;13914;48.178;11.716;2023-03-09T06:43:35;5.13;;;0.93;;
26163;SDS011;13914;48.178;11.716;2023-03-09T06:46:01;2.63;;;0.50;;
26163;SDS011;13914;48.178;11.716;2023-03-09T06:48:27;2.47;;;0.47;;
26163;SDS011;13914;48.178;11.716;2023-03-09T06:50:52;5.68;;;1.13;;
26163;SDS011;13914;48.178;11.716;2023-03-09T06:53:18;1.07;;;0.33;;
26163;SDS011;13914;48.178;11.716;2023-03-09T06:55:44;2.97;;;0.75;;
26163;SDS011;13914;48.178;11.716;2023-03-09T06:58:10;4.32;;;0.65;;
26163;SDS011;13914;48.178;11.716;2023-03-09T07:03:05;4.22;;;0.75;;
26163;SDS011;13914;48.178;11.716;2023-03-09T07:05:36;3.13;;;0.60;;
26163;SDS011;13914;48.178;11.716;2023-03-09T07:08:01;0.87;;;0.50;;
26163;SDS011;13914;48.178;11.716;2023-03-09T07:10:27;3.53;;;0.60;;
26163;SDS011;13914;48.178;11.716;2023-03-09T07:12:53;4.90;;;1.13;;
26163;SDS011;13914;48.178;11.716;2023-03-09T07:15:19;1.80;;;0.60;;
26163;SDS011;13914;48.178;11.716;2023-03-09T07:17:44;1.63;;;0.68;;
26163;SDS011;13914;48.178;11.716;2023-03-09T07:20:10;0.73;;;0.30;;
26163;SDS011;13914;48.178;11.716;2023-03-09T07:22:37;1.48;;;0.32;;
26163;SDS011;13914;48.178;11.716;2023-03-09T07:25:03;4.70;;;0.40;;
26163;SDS011;13914;48.178;11.716;2023-03-09T07:27:29;1.13;;;0.65;;
26163;SDS011;13914;48.178;11.716;2023-03-09T07:29:56;0.73;;;0.20;;
26163;SDS011;13914;48.178;11.716;2023-03-09T07:32:23;2.10;;;0.30;;
26163;SDS011;13914;48.178;11.716;2023-03-09T07:37:15;0.85;;;0.30;;
26163;SDS011;13914;48.178;11.716;2023-03-09T07:39:41;1.60;;;0.20;;
26163;SDS011;13914;48.178;11.716;2023-03-09T07:42:07;1.30;;;0.43;;
26163;SDS011;13914;48.178;11.716;2023-03-09T07:44:33;1.98;;;0.40;;
26163;SDS011;13914;48.178;11.716;2023-03-09T07:46:59;0.85;;;0.30;;
26163;SDS011;13914;48.178;11.716;2023-03-09T07:49:24;1.65;;;0.20;;
26163;SDS011;13914;48.178;11.716;2023-03-09T07:51:50;1.10;;;0.47;;
26163;SDS011;13914;48.178;11.716;2023-03-09T07:54:16;0.70;;;0.30;;
26163;SDS011;13914;48.178;11.716;2023-03-09T07:56:42;2.20;;;0.37;;
26163;SDS011;13914;48.178;11.716;2023-03-09T07:59:13;1.77;;;0.32;;
26163;SDS011;13914;48.178;11.716;2023-03-09T08:01:43;0.40;;;0.40;;
26163;SDS011;13914;48.178;11.716;2023-03-09T08:04:09;1.37;;;0.30;;
26163;SDS011;13914;48.178;11.716;2023-03-09T08:06:38;0.98;;;0.32;;
26163;SDS011;13914;48.178;11.716;2023-03-09T08:09:06;4.45;;;0.40;;
26163;SDS011;13914;48.178;11.716;2023-03-09T08:11:37;5.10;;;0.40;;
26163;SDS011;13914;48.178;11.716;2023-03-09T08:14:03;1.90;;;0.38;;
26163;SDS011;13914;48.178;11.716;2023-03-09T08:16:29;1.77;;;0.50;;
26163;SDS011;13914;48.178;11.716;2023-03-09T08:18:55;1.65;;;0.30;;
26163;SDS011;13914;48.178;11.716;2023-03-09T08:21:21;4.85;;;0.60;;
26163;SDS011;13914;48.178;11.716;2023-03-09T08:23:47;1.45;;;0.40;;
26163;SDS011;13914;48.178;11.716;2023-03-09T08:26:13;2.50;;;0.47;;
26163;SDS011;13914;48.178;11.716;2023-03-09T08:28:41;0.35;;;0.35;;
26163;SDS011;13914;48.178;11.716;2023-03-09T08:31:09;1.17;;;0.32;;
26163;SDS011;13914;48.178;11.716;2023-03-09T08:33:37;0.95;;;0.32;;
26163;SDS011;13914;48.178;11.716;2023-03-09T08:36:13;2.95;;;0.40;;
26163;SDS011;13914;48.178;11.716;2023-03-09T08:38:42;5.18;;;0.45;;
26163;SDS011;13914;48.178;11.716;2023-03-09T08:41:09;1.60;;;0.70;;
26163;SDS011;13914;48.178;11.716;2023-03-09T08:43:35;2.15;;;0.60;;
26163;SDS011;13914;48.178;11.716;2023-03-09T08:46:01;1.65;;;0.43;;
26163;SDS011;13914;48.178;11.716;2023-03-09T08:48:27;3.70;;;0.55;;
26163;SDS011;13914;48.178;11.716;2023-03-09T08:50:53;3.13;;;0.85;;
26163;SDS011;13914;48.178;11.716;2023-03-09T08:53:18;4.20;;;0.60;;
26163;SDS011;13914;48.178;11.716;2023-03-09T08:55:45;2.63;;;0.47;;
26163;SDS011;13914;48.178;11.716;2023-03-09T08:58:11;2.58;;;0.70;;
26163;SDS011;13914;48.178;11.716;2023-03-09T09:00:37;1.85;;;0.40;;
26163;SDS011;13914;48.178;11.716;2023-03-09T09:03:03;3.75;;;0.75;;
26163;SDS011;13914;48.178;11.716;2023-03-09T09:05:29;0.82;;;0.40;;
26163;SDS011;13914;48.178;11.716;2023-03-09T09:07:55;6.05;;;0.65;;
26163;SDS011;13914;48.178;11.716;2023-03-09T09:10:21;3.03;;;0.50;;
26163;SDS011;13914;48.178;11.716;2023-03-09T09:12:47;5.68;;;0.70;;
26163;SDS011;13914;48.178;11.716;2023-03-09T09:15:12;2.75;;;0.70;;
26163;SDS011;13914;48.178;11.716;2023-03-09T09:17:40;6.72;;;0.60;;
26163;SDS011;13914;48.178;11.716;2023-03-09T09:20:07;3.97;;;0.70;;
26163;SDS011;13914;48.178;11.716;2023-03-09T09:22:34;4.65;;;0.52;;
26163;SDS011;13914;48.178;11.716;2023-03-09T09:25:00;4.60;;;0.70;;
26163;SDS011;13914;48.178;11.716;2023-03-09T09:27:29;2.38;;;0.57;;
26163;SDS011;13914;48.178;11.716;2023-03-09T09:29:54;2.90;;;0.60;;
26163;SDS011;13914;48.178;11.716;2023-03-09T09:32:21;3.65;;;0.40;;
26163;SDS011;13914;48.178;11.716;2023-03-09T09:34:47;5.85;;;0.85;;
26163;SDS011;13914;48.178;11.716;2023-03-09T09:37:13;3.05;;;0.70;;
26163;SDS011;13914;48.178;11.716;2023-03-09T09:39:40;5.13;;;0.98;;
26163;SDS011;13914;48.178;11.716;2023-03-09T09:42:14;3.00;;;0.50;;
26163;SDS011;13914;48.178;11.716;2023-03-09T09:45:00;4.55;;;0.50;;
26163;SDS011;13914;48.178;11.716;2023-03-09T09:47:29;3.83;;;0.63;;
26163;SDS011;13914;48.178;11.716;2023-03-09T09:49:58;4.97;;;0.60;;
26163;SDS011;13914;48.178;11.716;2023-03-09T09:57:46;7.47;;;1.02;;
26163;SDS011;13914;48.178;11.716;2023-03-09T10:00:30;4.07;;;0.45;;
26163;SDS011;13914;48.178;11.716;2023-03-09T10:05:41;4.72;;;0.60;;
26163;SDS011;13914;48.178;11.716;2023-03-09T10:08:20;8.65;;;0.65;;
26163;SDS011;13914;48.178;11.716;2023-03-09T10:23:06;2.92;;;0.50;;
26163;SDS011;13914;48.178;11.716;2023-03-09T10:25:47;1.27;;;0.40;;
26163;SDS011;13914;48.178;11.716;2023-03-09T10:28:19;3.60;;;0.50;;
26163;SDS011;13914;48.178;11.716;2023-03-09T10:30:50;4.15;;;0.63;;
26163;SDS011;13914;48.178;11.716;2023-03-09T10:39:00;2.67;;;0.52;;
26163;SDS011;13914;48.178;11.716;2023-03-09T10:41:36;4.07;;;0.35;;
26163;SDS011;13914;48.178;11.716;2023-03-09T10:44:02;3.67;;;0.75;;
26163;SDS011;13914;48.178;11.716;2023-03-09T10:46:29;4.13;;;0.47;;
26163;SDS011;13914;48.178;11.716;2023-03-09T10:49:16;3.20;;;0.43;;
26163;SDS011;13914;48.178;11.716;2023-03-09T10:56:50;4.32;;;0.55;;
26163;SDS011;13914;48.178;11.716;2023-03-09T10:59:19;3.42;;;0.40;;
26163;SDS011;13914;48.178;11.716;2023-03-09T11:01:48;3.60;;;0.40;;
26163;SDS011;13914;48.178;11.716;2023-03-09T11:06:52;1.05;;;0.20;;
26163;SDS011;13914;48.178;11.716;2023-03-09T11:09:29;3.55;;;0.32;;
26163;SDS011;13914;48.178;11.716;2023-03-09T11:14:59;4.13;;;0.32;;
26163;SDS011;13914;48.178;11.716;2023-03-09T11:17:48;4.32;;;0.47;;
26163;SDS011;13914;48.178;11.716;2023-03-09T11:23:32;5.28;;;0.50;;
26163;SDS011;13914;48.178;11.716;2023-03-09T11:34:01;5.38;;;0.52;;
26163;SDS011;13914;48.178;11.716;2023-03-09T11:39:05;2.17;;;0.55;;
26163;SDS011;13914;48.178;11.716;2023-03-09T11:41:44;5.35;;;0.57;;
26163;SDS011;13914;48.178;11.716;2023-03-09T11:44:23;3.35;;;0.50;;
26163;SDS011;13914;48.178;11.716;2023-03-09T11:46:56;2.88;;;0.50;;
26163;SDS011;13914;48.178;11.716;2023-03-09T11:49:29;2.05;;;0.55;;
26163;SDS011;13914;48.178;11.716;2023-03-09T11:51:57;6.10;;;0.68;;
26163;SDS011;13914;48.178;11.716;2023-03-09T11:57:05;3.85;;;0.60;;
26163;SDS011;13914;48.178;11.716;2023-03-09T11:59:44;4.30;;;0.60;;
26163;SDS011;13914;48.178;11.716;2023-03-09T12:05:12;3.83;;;0.60;;
26163;SDS011;13914;48.178;11.716;2023-03-09T12:08:03;3.67;;;0.40;;
26163;SDS011;13914;48.178;11.716;2023-03-09T12:13:29;4.43;;;0.50;;
26163;SDS011;13914;48.178;11.716;2023-03-09T12:16:01;4.90;;;0.35;;
26163;SDS011;13914;48.178;11.716;2023-03-09T12:18:39;1.90;;;0.40;;
26163;SDS011;13914;48.178;11.716;2023-03-09T12:21:27;2.00;;;0.60;;
26163;SDS011;13914;48.178;11.716;2023-03-09T12:23:57;5.30;;;0.90;;
26163;SDS011;13914;48.178;11.716;2023-03-09T12:26:31;2.45;;;0.60;;
26163;SDS011;13914;48.178;11.716;2023-03-09T12:28:59;4.90;;;0.50;;
26163;SDS011;13914;48.178;11.716;2023-03-09T12:31:37;5.32;;;0.70;;
26163;SDS011;13914;48.178;11.716;2023-03-09T12:36:36;3.83;;;0.77;;
26163;SDS011;13914;48.178;11.716;2023-03-09T13:03:28;3.30;;;0.60;;
26163;SDS011;13914;48.178;11.716;2023-03-09T13:08:48;3.38;;;0.60;;
26163;SDS011;13914;48.178;11.716;2023-03-09T13:13:50;3.25;;;0.47;;
26163;SDS011;13914;48.178;11.716;2023-03-09T13:21:47;5.10;;;0.65;;
26163;SDS011;13914;48.178;11.716;2023-03-09T13:29:38;5.28;;;0.70;;
26163;SDS011;13914;48.178;11.716;2023-03-09T13:32:17;2.72;;;0.60;;
26163;SDS011;13914;48.178;11.716;2023-03-09T13:37:41;4.60;;;0.65;;
26163;SDS011;13914;48.178;11.716;2023-03-09T13:42:42;1.95;;;0.35;;
26163;SDS011;13914;48.178;11.716;2023-03-09T13:45:29;2.58;;;0.70;;
26163;SDS011;13914;48.178;11.716;2023-03-09T13:47:57;6.80;;;0.90;;
26163;SDS011;13914;48.178;11.716;2023-03-09T13:50:25;3.20;;;0.60;;
26163;SDS011;13914;48.178;11.716;2023-03-09T13:55:30;6.03;;;0.70;;
26163;SDS011;13914;48.178;11.716;2023-03-09T13:58:13;4.70;;;0.55;;
26163;SDS011;13914;48.178;11.716;2023-03-09T14:00:50;3.30;;;0.65;;
26163;SDS011;13914;48.178;11.716;2023-03-09T14:03:22;3.97;;;0.70;;
26163;SDS011;13914;48.178;11.716;2023-03-09T14:05:59;5.93;;;0.50;;
26163;SDS011;13914;48.178;11.716;2023-03-09T14:08:30;4.35;;;0.93;;
26163;SDS011;13914;48.178;11.716;2023-03-09T14:11:05;0.90;;;0.22;;
26163;SDS011;13914;48.178;11.716;2023-03-09T14:13:33;5.32;;;0.60;;
26163;SDS011;13914;48.178;11.716;2023-03-09T14:16:04;3.05;;;0.45;;
26163;SDS011;13914;48.178;11.716;2023-03-09T14:21:27;6.57;;;0.80;;
26163;SDS011;13914;48.178;11.716;2023-03-09T14:26:41;3.95;;;0.88;;
26163;SDS011;13914;48.178;11.716;2023-03-09T14:31:39;4.15;;;0.47;;
26163;SDS011;13914;48.178;11.716;2023-03-09T14:34:26;3.28;;;0.52;;
26163;SDS011;13914;48.178;11.716;2023-03-09T14:36:53;5.13;;;0.43;;
26163;SDS011;13914;48.178;11.716;2023-03-09T14:39:23;2.92;;;0.50;;
26163;SDS011;13914;48.178;11.716;2023-03-09T14:42:02;2.85;;;0.30;;
26163;SDS011;13914;48.178;11.716;2023-03-09T14:44:35;3.85;;;0.60;;
26163;SDS011;13914;48.178;11.716;2023-03-09T14:47:16;1.73;;;0.40;;
26163;SDS011;13914;48.178;11.716;2023-03-09T14:49:51;3.25;;;0.80;;
26163;SDS011;13914;48.178;11.716;2023-03-09T14:52:18;2.60;;;0.50;;
26163;SDS011;13914;48.178;11.716;2023-03-09T14:54:46;4.47;;;0.88;;
26163;SDS011;13914;48.178;11.716;2023-03-09T14:57:14;4.68;;;0.50;;
26163;SDS011;13914;48.178;11.716;2023-03-09T14:59:41;5.13;;;0.80;;
26163;SDS011;13914;48.178;11.716;2023-03-09T15:02:08;1.73;;;0.40;;
26163;SDS011;13914;48.178;11.716;2023-03-09T15:04:36;1.67;;;0.40;;
26163;SDS011;13914;48.178;11.716;2023-03-09T15:07:06;3.13;;;1.02;;
26163;SDS011;13914;48.178;11.716;2023-03-09T15:09:33;5.80;;;0.77;;
26163;SDS011;13914;48.178;11.716;2023-03-09T15:12:00;3.90;;;0.60;;
26163;SDS011;13914;48.178;11.716;2023-03-09T15:14:33;5.60;;;0.73;;
26163;SDS011;13914;48.178;11.716;2023-03-09T15:17:05;6.35;;;1.05;;
26163;SDS011;13914;48.178;11.716;2023-03-09T15:19:31;7.55;;;0.60;;
26163;SDS011;13914;48.178;11.716;2023-03-09T15:21:58;3.92;;;0.50;;
26163;SDS011;13914;48.178;11.716;2023-03-09T15:24:25;2.42;;;0.50;;
26163;SDS011;13914;48.178;11.716;2023-03-09T15:26:53;6.03;;;0.95;;
26163;SDS011;13914;48.178;11.716;2023-03-09T15:29:20;3.72;;;0.70;;
26163;SDS011;13914;48.178;11.716;2023-03-09T15:31:46;2.88;;;0.93;;
26163;SDS011;13914;48.178;11.716;2023-03-09T15:34:12;4.43;;;0.82;;
26163;SDS011;13914;48.178;11.716;2023-03-09T15:36:38;6.13;;;1.10;;
26163;SDS011;13914;48.178;11.716;2023-03-09T15:39:05;6.57;;;1.05;;
26163;SDS011;13914;48.178;11.716;2023-03-09T15:41:31;4.32;;;0.57;;
26163;SDS011;13914;48.178;11.716;2023-03-09T15:43:57;3.83;;;0.50;;
26163;SDS011;13914;48.178;11.716;2023-03-09T15:46:23;5.28;;;0.90;;
26163;SDS011;13914;48.178;11.716;2023-03-09T15:48:50;4.20;;;0.63;;
26163;SDS011;13914;48.178;11.716;2023-03-09T15:51:17;8.38;;;0.70;;
26163;SDS011;13914;48.178;11.716;2023-03-09T15:53:44;4.57;;;0.80;;
26163;SDS011;13914;48.178;11.716;2023-03-09T15:56:10;4.93;;;0.75;;
26163;SDS011;13914;48.178;11.716;2023-03-09T15:58:38;5.15;;;0.70;;
26163;SDS011;13914;48.178;11.716;2023-03-09T16:01:07;3.97;;;0.70;;
26163;SDS011;13914;48.178;11.716;2023-03-09T16:03:53;2.70;;;0.47;;
26163;SDS011;13914;48.178;11.716;2023-03-09T16:06:20;3.05;;;0.70;;
26163;SDS011;13914;48.178;11.716;2023-03-09T16:08:47;5.10;;;0.70;;
26163;SDS011;13914;48.178;11.716;2023-03-09T16:11:14;5.80;;;0.80;;
26163;SDS011;13914;48.178;11.716;2023-03-09T16:13:41;5.45;;;0.80;;
26163;SDS011;13914;48.178;11.716;2023-03-09T16:16:08;4.97;;;0.77;;
26163;SDS011;13914;48.178;11.716;2023-03-09T16:18:35;6.60;;;0.88;;
26163;SDS011;13914;48.178;11.716;2023-03-09T16:21:01;7.63;;;1.00;;
26163;SDS011;13914;48.178;11.716;2023-03-09T16:23:28;3.33;;;0.75;;
26163;SDS011;13914;48.178;11.716;2023-03-09T16:25:54;6.20;;;1.00;;
26163;SDS011;13914;48.178;11.716;2023-03-09T16:28:21;3.10;;;0.70;;
26163;SDS011;13914;48.178;11.716;2023-03-09T16:30:49;5.22;;;0.68;;
26163;SDS011;13914;48.178;11.716;2023-03-09T16:33:15;5.63;;;0.73;;
26163;SDS011;13914;48.178;11.716;2023-03-09T16:35:41;5.60;;;0.65;;
26163;SDS011;13914;48.178;11.716;2023-03-09T16:38:10;6.57;;;0.73;;
26163;SDS011;13914;48.178;11.716;2023-03-09T16:40:38;4.22;;;0.75;;
26163;SDS011;13914;48.178;11.716;2023-03-09T16:43:05;5.70;;;0.93;;
26163;SDS011;13914;48.178;11.716;2023-03-09T16:45:31;2.05;;;0.57;;
26163;SDS011;13914;48.178;11.716;2023-03-09T16:47:57;3.25;;;0.85;;
26163;SDS011;13914;48.178;11.716;2023-03-09T16:50:23;4.72;;;0.95;;
26163;SDS011;13914;48.178;11.716;2023-03-09T16:52:50;4.15;;;0.50;;
26163;SDS011;13914;48.178;11.716;2023-03-09T16:55:17;5.90;;;0.98;;
26163;SDS011;13914;48.178;11.716;2023-03-09T16:57:46;6.32;;;0.80;;
26163;SDS011;13914;48.178;11.716;2023-03-09T17:00:16;5.32;;;1.15;;
26163;SDS011;13914;48.178;11.716;2023-03-09T17:02:44;6.15;;;0.75;;